Rock Springs, WY (82901)

6:22 PM MST on December 19, 2014 (GMT -0700)
Rock Springs-Sweetwater | Change Station
CLOSE
Current Station
Airport
Location: Rock Springs,
Elevation: 6759 ft
Nearby Weather Stations

Elev 6759 ft 41.59 °N, 109.05 °W | Updated 28 minutes ago

Overcast
Overcast
30 °F
Feels Like 22 °F
N
8
Wind Variable Wind from WSW

Today
High -- | Low -- °F
--% Chance of Precip.
Yesterday
High -- | Low -- °F
Precip. -- in
7:38 AM 4:47 PM
Waning Crescent, 5% visible
Pressure 30.20 in
Visibility 10.0 miles
Clouds Mostly Cloudy 4800 ft
Overcast 6000 ft
Windchill 22 °F
Dew Point 21 °F
Humidity 69%
Rainfall 0.00 in
Snow Depth Not available.
UV 0 out of 12
Pollen .10 out of 12
Air Quality Not available.
Flu Activity Not available.
METAR KRKS 200054Z AUTO 24007KT 10SM BKN048 OVC060 M01/M06 A3009 RMK AO2 SLP226 T10111061

More Conditions Fewer Conditions

Pressure 30.20 in
Visibility 10.0 miles
Clouds Mostly Cloudy 4800 ft
Overcast 6000 ft
Windchill 22 °F
Dew Point 21 °F
Humidity 69%
Rainfall 0.00 in
Snow Depth Not available.
UV 0 out of 12
Pollen .10 out of 12
Air Quality Not available.
Flu Activity Not available.
METAR KRKS 200054Z AUTO 24007KT 10SM BKN048 OVC060 M01/M06 A3009 RMK AO2 SLP226 T10111061

More Conditions Fewer Conditions

10-Day Weather Forecast

Almanac

Astronomy

Dec. 19, 2014 Rise Set
Actual Time
Civil Twilight
Nautical Twilight
Astronomical Twilight
Moon
Length of Visible Light
Length of Day
Tomorrow will be .
, % of the Moon is Illuminated

Today's Extremes

State Highs State Lows

Community

WunderPhotos

Upload Photos

1,779,099 photos uploaded!

WunderBlogs® & News

Nearby

Air Quality

  Air Quality AQ Index Pollutant
Not available.

Snow Depth

Station Depth Elevation

Earthquake Activity

City Distance Mag. Time & Date
Minimum magnitude displayed is 2.5.

Coastal Water Temperatures

Place Temperature

Nearby Weather Stations